sensor_id;sensor_type;location;lat;lon;timestamp;P1;durP1;ratioP1;P2;durP2;ratioP2
83552;SDS011;73510;50.866;5.420;2024-01-25T00:02:18;33.10;;;6.15;;
83552;SDS011;73510;50.866;5.420;2024-01-25T00:04:44;30.75;;;5.40;;
83552;SDS011;73510;50.866;5.420;2024-01-25T00:07:09;32.70;;;5.28;;
83552;SDS011;73510;50.866;5.420;2024-01-25T00:09:35;31.05;;;4.95;;
83552;SDS011;73510;50.866;5.420;2024-01-25T00:12:01;35.10;;;6.50;;
83552;SDS011;73510;50.866;5.420;2024-01-25T00:14:26;32.70;;;5.35;;
83552;SDS011;73510;50.866;5.420;2024-01-25T00:16:52;30.67;;;6.07;;
83552;SDS011;73510;50.866;5.420;2024-01-25T00:19:18;28.35;;;6.10;;
83552;SDS011;73510;50.866;5.420;2024-01-25T00:21:44;26.65;;;4.57;;
83552;SDS011;73510;50.866;5.420;2024-01-25T00:24:11;22.38;;;4.70;;
83552;SDS011;73510;50.866;5.420;2024-01-25T00:26:37;30.50;;;5.32;;
83552;SDS011;73510;50.866;5.420;2024-01-25T00:29:03;32.17;;;5.70;;
83552;SDS011;73510;50.866;5.420;2024-01-25T00:31:29;37.60;;;6.32;;
83552;SDS011;73510;50.866;5.420;2024-01-25T00:33:56;37.65;;;5.80;;
83552;SDS011;73510;50.866;5.420;2024-01-25T00:36:22;26.40;;;4.97;;
83552;SDS011;73510;50.866;5.420;2024-01-25T00:38:49;27.33;;;5.68;;
83552;SDS011;73510;50.866;5.420;2024-01-25T00:41:17;28.17;;;5.78;;
83552;SDS011;73510;50.866;5.420;2024-01-25T00:43:44;20.88;;;4.20;;
83552;SDS011;73510;50.866;5.420;2024-01-25T00:46:10;27.42;;;6.45;;
83552;SDS011;73510;50.866;5.420;2024-01-25T00:48:36;32.05;;;6.60;;
83552;SDS011;73510;50.866;5.420;2024-01-25T00:51:02;28.63;;;5.65;;
83552;SDS011;73510;50.866;5.420;2024-01-25T00:53:31;29.90;;;5.60;;
83552;SDS011;73510;50.866;5.420;2024-01-25T00:55:58;33.58;;;7.05;;
83552;SDS011;73510;50.866;5.420;2024-01-25T00:58:24;28.67;;;5.00;;
83552;SDS011;73510;50.866;5.420;2024-01-25T01:00:50;26.27;;;5.20;;
83552;SDS011;73510;50.866;5.420;2024-01-25T01:03:16;25.60;;;5.15;;
83552;SDS011;73510;50.866;5.420;2024-01-25T01:05:44;34.25;;;6.22;;
83552;SDS011;73510;50.866;5.420;2024-01-25T01:08:10;28.40;;;5.28;;
83552;SDS011;73510;50.866;5.420;2024-01-25T01:10:36;39.33;;;6.05;;
83552;SDS011;73510;50.866;5.420;2024-01-25T01:13:02;35.30;;;7.00;;
83552;SDS011;73510;50.866;5.420;2024-01-25T01:15:28;27.75;;;5.43;;
83552;SDS011;73510;50.866;5.420;2024-01-25T01:17:54;27.35;;;6.47;;
83552;SDS011;73510;50.866;5.420;2024-01-25T01:20:20;28.02;;;4.93;;
83552;SDS011;73510;50.866;5.420;2024-01-25T01:22:46;30.58;;;5.05;;
83552;SDS011;73510;50.866;5.420;2024-01-25T01:25:11;31.33;;;5.90;;
83552;SDS011;73510;50.866;5.420;2024-01-25T01:27:37;33.13;;;6.10;;
83552;SDS011;73510;50.866;5.420;2024-01-25T01:30:03;43.20;;;6.60;;
83552;SDS011;73510;50.866;5.420;2024-01-25T01:32:29;27.70;;;5.55;;
83552;SDS011;73510;50.866;5.420;2024-01-25T01:34:55;35.25;;;6.57;;
83552;SDS011;73510;50.866;5.420;2024-01-25T01:37:20;29.33;;;6.15;;
83552;SDS011;73510;50.866;5.420;2024-01-25T01:39:46;36.50;;;7.43;;
83552;SDS011;73510;50.866;5.420;2024-01-25T01:42:11;30.25;;;6.00;;
83552;SDS011;73510;50.866;5.420;2024-01-25T01:44:38;32.92;;;5.47;;
83552;SDS011;73510;50.866;5.420;2024-01-25T01:47:04;30.45;;;6.22;;
83552;SDS011;73510;50.866;5.420;2024-01-25T01:49:30;34.80;;;5.57;;
83552;SDS011;73510;50.866;5.420;2024-01-25T01:51:56;33.45;;;5.65;;
83552;SDS011;73510;50.866;5.420;2024-01-25T01:54:21;32.08;;;5.90;;
83552;SDS011;73510;50.866;5.420;2024-01-25T01:56:47;28.17;;;4.95;;
83552;SDS011;73510;50.866;5.420;2024-01-25T01:59:14;30.00;;;5.38;;
83552;SDS011;73510;50.866;5.420;2024-01-25T02:01:40;29.10;;;6.70;;
83552;SDS011;73510;50.866;5.420;2024-01-25T02:04:06;35.42;;;5.18;;
83552;SDS011;73510;50.866;5.420;2024-01-25T02:06:32;31.48;;;5.65;;
83552;SDS011;73510;50.866;5.420;2024-01-25T02:08:59;30.52;;;6.10;;
83552;SDS011;73510;50.866;5.420;2024-01-25T02:11:25;29.25;;;5.68;;
83552;SDS011;73510;50.866;5.420;2024-01-25T02:13:51;34.70;;;6.32;;
83552;SDS011;73510;50.866;5.420;2024-01-25T02:16:17;31.20;;;5.10;;
83552;SDS011;73510;50.866;5.420;2024-01-25T02:18:44;29.58;;;5.68;;
83552;SDS011;73510;50.866;5.420;2024-01-25T02:21:10;26.83;;;5.18;;
83552;SDS011;73510;50.866;5.420;2024-01-25T02:23:36;30.35;;;6.28;;
83552;SDS011;73510;50.866;5.420;2024-01-25T02:26:02;30.05;;;5.85;;
83552;SDS011;73510;50.866;5.420;2024-01-25T02:28:27;33.40;;;7.28;;
83552;SDS011;73510;50.866;5.420;2024-01-25T02:30:53;31.90;;;5.50;;
83552;SDS011;73510;50.866;5.420;2024-01-25T02:33:19;33.58;;;5.43;;
83552;SDS011;73510;50.866;5.420;2024-01-25T02:35:44;27.25;;;4.63;;
83552;SDS011;73510;50.866;5.420;2024-01-25T02:38:10;26.75;;;5.00;;
83552;SDS011;73510;50.866;5.420;2024-01-25T02:40:36;35.70;;;5.68;;
83552;SDS011;73510;50.866;5.420;2024-01-25T02:43:02;32.58;;;5.28;;
83552;SDS011;73510;50.866;5.420;2024-01-25T02:45:28;32.28;;;7.72;;
83552;SDS011;73510;50.866;5.420;2024-01-25T02:47:53;23.75;;;5.70;;
83552;SDS011;73510;50.866;5.420;2024-01-25T02:50:19;25.85;;;5.95;;
83552;SDS011;73510;50.866;5.420;2024-01-25T02:52:45;26.90;;;6.05;;
83552;SDS011;73510;50.866;5.420;2024-01-25T02:55:10;38.38;;;7.35;;
83552;SDS011;73510;50.866;5.420;2024-01-25T02:57:36;34.88;;;5.93;;
83552;SDS011;73510;50.866;5.420;2024-01-25T03:00:01;32.08;;;6.10;;
83552;SDS011;73510;50.866;5.420;2024-01-25T03:02:28;40.03;;;5.88;;
83552;SDS011;73510;50.866;5.420;2024-01-25T03:04:53;39.85;;;6.57;;
83552;SDS011;73510;50.866;5.420;2024-01-25T03:07:19;24.75;;;4.93;;
83552;SDS011;73510;50.866;5.420;2024-01-25T03:09:45;29.77;;;5.50;;
83552;SDS011;73510;50.866;5.420;2024-01-25T03:12:10;16.70;;;4.22;;
83552;SDS011;73510;50.866;5.420;2024-01-25T03:14:36;28.42;;;5.78;;
83552;SDS011;73510;50.866;5.420;2024-01-25T03:17:02;34.42;;;5.15;;
83552;SDS011;73510;50.866;5.420;2024-01-25T03:19:28;20.00;;;4.03;;
83552;SDS011;73510;50.866;5.420;2024-01-25T03:21:54;25.48;;;4.82;;
83552;SDS011;73510;50.866;5.420;2024-01-25T03:24:20;24.05;;;4.15;;
83552;SDS011;73510;50.866;5.420;2024-01-25T03:26:46;20.02;;;5.00;;
83552;SDS011;73510;50.866;5.420;2024-01-25T03:29:11;23.27;;;4.50;;
83552;SDS011;73510;50.866;5.420;2024-01-25T03:31:37;13.27;;;3.17;;
83552;SDS011;73510;50.866;5.420;2024-01-25T03:34:03;12.20;;;3.25;;
83552;SDS011;73510;50.866;5.420;2024-01-25T03:36:30;23.00;;;4.20;;
83552;SDS011;73510;50.866;5.420;2024-01-25T03:38:56;15.95;;;3.63;;
83552;SDS011;73510;50.866;5.420;2024-01-25T03:41:22;19.33;;;3.85;;
83552;SDS011;73510;50.866;5.420;2024-01-25T03:43:48;14.57;;;3.50;;
83552;SDS011;73510;50.866;5.420;2024-01-25T03:46:14;21.05;;;4.80;;
83552;SDS011;73510;50.866;5.420;2024-01-25T03:48:40;22.80;;;3.95;;
83552;SDS011;73510;50.866;5.420;2024-01-25T03:51:06;18.80;;;4.68;;
83552;SDS011;73510;50.866;5.420;2024-01-25T03:53:31;17.17;;;5.25;;
83552;SDS011;73510;50.866;5.420;2024-01-25T03:55:58;26.52;;;4.55;;
83552;SDS011;73510;50.866;5.420;2024-01-25T03:58:23;20.70;;;4.28;;
83552;SDS011;73510;50.866;5.420;2024-01-25T04:00:50;26.63;;;4.47;;
83552;SDS011;73510;50.866;5.420;2024-01-25T04:03:15;25.30;;;4.63;;
83552;SDS011;73510;50.866;5.420;2024-01-25T04:05:41;28.58;;;4.93;;
83552;SDS011;73510;50.866;5.420;2024-01-25T04:08:07;22.50;;;4.75;;
83552;SDS011;73510;50.866;5.420;2024-01-25T04:10:33;27.88;;;4.60;;
83552;SDS011;73510;50.866;5.420;2024-01-25T04:12:59;31.67;;;4.82;;
83552;SDS011;73510;50.866;5.420;2024-01-25T04:15:29;22.90;;;4.03;;
83552;SDS011;73510;50.866;5.420;2024-01-25T04:17:55;28.60;;;4.32;;
83552;SDS011;73510;50.866;5.420;2024-01-25T04:20:21;23.67;;;3.85;;
83552;SDS011;73510;50.866;5.420;2024-01-25T04:22:47;21.85;;;3.38;;
83552;SDS011;73510;50.866;5.420;2024-01-25T04:25:13;15.90;;;3.53;;
83552;SDS011;73510;50.866;5.420;2024-01-25T04:27:38;19.25;;;3.72;;
83552;SDS011;73510;50.866;5.420;2024-01-25T04:30:05;19.05;;;4.20;;
83552;SDS011;73510;50.866;5.420;2024-01-25T04:32:31;15.15;;;3.50;;
83552;SDS011;73510;50.866;5.420;2024-01-25T04:34:57;31.20;;;4.63;;
83552;SDS011;73510;50.866;5.420;2024-01-25T04:37:23;15.02;;;3.65;;
83552;SDS011;73510;50.866;5.420;2024-01-25T04:39:49;21.45;;;4.18;;
83552;SDS011;73510;50.866;5.420;2024-01-25T04:42:15;25.23;;;3.85;;
83552;SDS011;73510;50.866;5.420;2024-01-25T04:44:40;25.15;;;4.38;;
83552;SDS011;73510;50.866;5.420;2024-01-25T04:47:06;29.42;;;4.95;;
83552;SDS011;73510;50.866;5.420;2024-01-25T04:49:32;19.55;;;3.47;;
83552;SDS011;73510;50.866;5.420;2024-01-25T04:51:57;24.02;;;4.40;;
83552;SDS011;73510;50.866;5.420;2024-01-25T04:54:23;22.65;;;4.53;;
83552;SDS011;73510;50.866;5.420;2024-01-25T04:56:49;29.50;;;5.57;;
83552;SDS011;73510;50.866;5.420;2024-01-25T04:59:15;27.83;;;4.25;;
83552;SDS011;73510;50.866;5.420;2024-01-25T05:01:40;26.42;;;4.90;;
83552;SDS011;73510;50.866;5.420;2024-01-25T05:04:06;17.83;;;3.97;;
83552;SDS011;73510;50.866;5.420;2024-01-25T05:06:33;31.27;;;4.10;;
83552;SDS011;73510;50.866;5.420;2024-01-25T05:08:58;20.77;;;4.93;;
83552;SDS011;73510;50.866;5.420;2024-01-25T05:11:24;32.35;;;4.30;;
83552;SDS011;73510;50.866;5.420;2024-01-25T05:13:49;26.98;;;4.63;;
83552;SDS011;73510;50.866;5.420;2024-01-25T05:16:15;20.00;;;4.18;;
83552;SDS011;73510;50.866;5.420;2024-01-25T05:18:41;19.58;;;4.30;;
83552;SDS011;73510;50.866;5.420;2024-01-25T05:21:07;26.88;;;4.93;;
83552;SDS011;73510;50.866;5.420;2024-01-25T05:23:33;27.30;;;5.28;;
83552;SDS011;73510;50.866;5.420;2024-01-25T05:25:58;32.40;;;5.05;;
83552;SDS011;73510;50.866;5.420;2024-01-25T05:28:24;28.95;;;5.18;;
83552;SDS011;73510;50.866;5.420;2024-01-25T05:30:50;31.20;;;5.20;;
83552;SDS011;73510;50.866;5.420;2024-01-25T05:33:15;27.02;;;4.15;;
83552;SDS011;73510;50.866;5.420;2024-01-25T05:35:41;35.50;;;6.57;;
83552;SDS011;73510;50.866;5.420;2024-01-25T05:38:07;22.90;;;4.38;;
83552;SDS011;73510;50.866;5.420;2024-01-25T05:40:32;23.48;;;3.88;;
83552;SDS011;73510;50.866;5.420;2024-01-25T05:42:59;18.25;;;3.65;;
83552;SDS011;73510;50.866;5.420;2024-01-25T05:45:24;23.98;;;4.22;;
83552;SDS011;73510;50.866;5.420;2024-01-25T05:47:51;21.05;;;3.95;;
83552;SDS011;73510;50.866;5.420;2024-01-25T05:50:17;26.17;;;4.68;;
83552;SDS011;73510;50.866;5.420;2024-01-25T05:52:42;36.08;;;5.20;;
83552;SDS011;73510;50.866;5.420;2024-01-25T05:55:08;32.22;;;4.88;;
83552;SDS011;73510;50.866;5.420;2024-01-25T05:57:37;27.33;;;4.88;;
83552;SDS011;73510;50.866;5.420;2024-01-25T06:00:04;35.40;;;5.03;;
83552;SDS011;73510;50.866;5.420;2024-01-25T06:02:30;31.30;;;5.80;;
83552;SDS011;73510;50.866;5.420;2024-01-25T06:04:56;25.00;;;4.60;;
83552;SDS011;73510;50.866;5.420;2024-01-25T06:07:24;18.85;;;3.63;;
83552;SDS011;73510;50.866;5.420;2024-01-25T06:09:50;23.55;;;3.90;;
83552;SDS011;73510;50.866;5.420;2024-01-25T06:12:16;24.60;;;4.43;;
83552;SDS011;73510;50.866;5.420;2024-01-25T06:14:41;27.70;;;5.40;;
83552;SDS011;73510;50.866;5.420;2024-01-25T06:17:07;34.35;;;4.43;;
83552;SDS011;73510;50.866;5.420;2024-01-25T06:19:33;30.60;;;5.22;;
83552;SDS011;73510;50.866;5.420;2024-01-25T06:21:59;23.67;;;4.20;;
83552;SDS011;73510;50.866;5.420;2024-01-25T06:24:25;18.65;;;3.97;;
83552;SDS011;73510;50.866;5.420;2024-01-25T06:26:52;26.67;;;4.95;;
83552;SDS011;73510;50.866;5.420;2024-01-25T06:29:18;30.65;;;5.63;;
83552;SDS011;73510;50.866;5.420;2024-01-25T06:31:43;31.67;;;5.60;;
83552;SDS011;73510;50.866;5.420;2024-01-25T06:34:10;34.80;;;5.80;;
83552;SDS011;73510;50.866;5.420;2024-01-25T06:36:36;23.88;;;4.32;;
83552;SDS011;73510;50.866;5.420;2024-01-25T06:39:03;25.92;;;4.03;;
83552;SDS011;73510;50.866;5.420;2024-01-25T06:41:31;28.08;;;5.45;;
83552;SDS011;73510;50.866;5.420;2024-01-25T06:43:58;30.50;;;6.03;;
83552;SDS011;73510;50.866;5.420;2024-01-25T06:46:24;31.65;;;5.50;;
83552;SDS011;73510;50.866;5.420;2024-01-25T06:48:50;33.53;;;5.40;;
83552;SDS011;73510;50.866;5.420;2024-01-25T06:51:16;38.83;;;5.63;;
83552;SDS011;73510;50.866;5.420;2024-01-25T06:53:42;34.15;;;5.65;;
83552;SDS011;73510;50.866;5.420;2024-01-25T06:56:07;25.63;;;4.13;;
83552;SDS011;73510;50.866;5.420;2024-01-25T06:58:33;30.92;;;4.45;;
83552;SDS011;73510;50.866;5.420;2024-01-25T07:00:59;21.23;;;4.40;;
83552;SDS011;73510;50.866;5.420;2024-01-25T07:03:25;31.05;;;5.38;;
83552;SDS011;73510;50.866;5.420;2024-01-25T07:05:51;34.38;;;4.57;;
83552;SDS011;73510;50.866;5.420;2024-01-25T07:08:16;26.75;;;4.10;;
83552;SDS011;73510;50.866;5.420;2024-01-25T07:10:43;27.55;;;4.63;;
83552;SDS011;73510;50.866;5.420;2024-01-25T07:13:09;23.92;;;4.25;;
83552;SDS011;73510;50.866;5.420;2024-01-25T07:15:35;26.48;;;5.70;;
83552;SDS011;73510;50.866;5.420;2024-01-25T07:18:00;20.95;;;5.40;;
83552;SDS011;73510;50.866;5.420;2024-01-25T07:20:27;24.60;;;6.00;;
83552;SDS011;73510;50.866;5.420;2024-01-25T07:22:53;23.73;;;4.78;;
83552;SDS011;73510;50.866;5.420;2024-01-25T07:25:18;17.80;;;5.00;;
83552;SDS011;73510;50.866;5.420;2024-01-25T07:27:45;22.52;;;4.65;;
83552;SDS011;73510;50.866;5.420;2024-01-25T07:30:11;24.98;;;4.85;;
83552;SDS011;73510;50.866;5.420;2024-01-25T07:32:38;35.13;;;5.95;;
83552;SDS011;73510;50.866;5.420;2024-01-25T07:35:07;24.30;;;4.32;;
83552;SDS011;73510;50.866;5.420;2024-01-25T07:37:34;23.63;;;5.43;;
83552;SDS011;73510;50.866;5.420;2024-01-25T07:40:00;32.70;;;5.70;;
83552;SDS011;73510;50.866;5.420;2024-01-25T07:42:28;28.25;;;5.90;;
83552;SDS011;73510;50.866;5.420;2024-01-25T07:44:54;33.97;;;5.97;;
83552;SDS011;73510;50.866;5.420;2024-01-25T07:47:20;34.78;;;10.20;;
83552;SDS011;73510;50.866;5.420;2024-01-25T07:49:45;37.47;;;9.25;;
83552;SDS011;73510;50.866;5.420;2024-01-25T07:52:11;33.30;;;9.15;;
83552;SDS011;73510;50.866;5.420;2024-01-25T07:54:36;37.05;;;10.40;;
83552;SDS011;73510;50.866;5.420;2024-01-25T07:57:02;40.78;;;8.98;;
83552;SDS011;73510;50.866;5.420;2024-01-25T07:59:28;30.75;;;6.32;;
83552;SDS011;73510;50.866;5.420;2024-01-25T08:01:54;24.60;;;7.05;;
83552;SDS011;73510;50.866;5.420;2024-01-25T08:04:20;37.25;;;7.22;;
83552;SDS011;73510;50.866;5.420;2024-01-25T08:06:45;28.33;;;6.28;;
83552;SDS011;73510;50.866;5.420;2024-01-25T08:09:11;33.65;;;7.78;;
83552;SDS011;73510;50.866;5.420;2024-01-25T08:11:37;34.83;;;6.53;;
83552;SDS011;73510;50.866;5.420;2024-01-25T08:14:02;31.77;;;7.00;;
83552;SDS011;73510;50.866;5.420;2024-01-25T08:16:28;30.20;;;7.00;;
83552;SDS011;73510;50.866;5.420;2024-01-25T08:18:55;40.55;;;8.27;;
83552;SDS011;73510;50.866;5.420;2024-01-25T08:21:20;44.65;;;10.57;;
83552;SDS011;73510;50.866;5.420;2024-01-25T08:23:46;42.35;;;8.00;;
83552;SDS011;73510;50.866;5.420;2024-01-25T08:26:12;35.97;;;6.60;;
83552;SDS011;73510;50.866;5.420;2024-01-25T08:28:39;64.07;;;9.25;;
83552;SDS011;73510;50.866;5.420;2024-01-25T08:31:05;36.97;;;7.85;;
83552;SDS011;73510;50.866;5.420;2024-01-25T08:33:31;65.80;;;11.55;;
83552;SDS011;73510;50.866;5.420;2024-01-25T08:35:56;37.00;;;8.52;;
83552;SDS011;73510;50.866;5.420;2024-01-25T08:38:22;44.17;;;9.15;;
83552;SDS011;73510;50.866;5.420;2024-01-25T08:40:48;27.92;;;8.18;;
83552;SDS011;73510;50.866;5.420;2024-01-25T08:43:14;33.33;;;9.65;;
83552;SDS011;73510;50.866;5.420;2024-01-25T08:45:40;29.25;;;8.80;;
83552;SDS011;73510;50.866;5.420;2024-01-25T08:48:05;23.90;;;8.18;;
83552;SDS011;73510;50.866;5.420;2024-01-25T08:50:33;26.15;;;7.38;;
83552;SDS011;73510;50.866;5.420;2024-01-25T08:53:00;41.80;;;10.68;;
83552;SDS011;73510;50.866;5.420;2024-01-25T08:55:27;38.63;;;10.35;;
83552;SDS011;73510;50.866;5.420;2024-01-25T08:57:52;32.53;;;9.60;;
83552;SDS011;73510;50.866;5.420;2024-01-25T09:00:18;42.88;;;11.20;;
83552;SDS011;73510;50.866;5.420;2024-01-25T09:02:44;38.88;;;10.73;;
83552;SDS011;73510;50.866;5.420;2024-01-25T09:05:10;40.50;;;10.63;;
83552;SDS011;73510;50.866;5.420;2024-01-25T09:07:35;55.63;;;13.32;;
83552;SDS011;73510;50.866;5.420;2024-01-25T09:10:02;50.97;;;12.68;;
83552;SDS011;73510;50.866;5.420;2024-01-25T09:12:29;47.10;;;13.57;;
83552;SDS011;73510;50.866;5.420;2024-01-25T09:14:55;28.90;;;10.43;;
83552;SDS011;73510;50.866;5.420;2024-01-25T09:17:21;61.20;;;14.85;;
83552;SDS011;73510;50.866;5.420;2024-01-25T09:19:47;44.45;;;12.70;;
83552;SDS011;73510;50.866;5.420;2024-01-25T09:22:18;45.40;;;12.82;;
83552;SDS011;73510;50.866;5.420;2024-01-25T09:24:46;39.33;;;11.45;;
83552;SDS011;73510;50.866;5.420;2024-01-25T09:27:12;46.78;;;13.20;;
83552;SDS011;73510;50.866;5.420;2024-01-25T09:29:41;47.80;;;11.98;;
83552;SDS011;73510;50.866;5.420;2024-01-25T09:32:08;43.00;;;12.25;;
83552;SDS011;73510;50.866;5.420;2024-01-25T09:34:35;44.28;;;12.00;;
83552;SDS011;73510;50.866;5.420;2024-01-25T09:37:01;36.15;;;10.88;;
83552;SDS011;73510;50.866;5.420;2024-01-25T09:39:27;41.60;;;12.27;;
83552;SDS011;73510;50.866;5.420;2024-01-25T09:41:53;42.78;;;11.77;;
83552;SDS011;73510;50.866;5.420;2024-01-25T09:44:19;43.08;;;11.73;;
83552;SDS011;73510;50.866;5.420;2024-01-25T09:46:45;38.13;;;11.25;;
83552;SDS011;73510;50.866;5.420;2024-01-25T09:49:11;32.85;;;13.07;;
83552;SDS011;73510;50.866;5.420;2024-01-25T09:51:38;34.83;;;12.10;;
83552;SDS011;73510;50.866;5.420;2024-01-25T09:54:06;35.20;;;10.88;;
83552;SDS011;73510;50.866;5.420;2024-01-25T09:56:32;37.88;;;12.15;;
83552;SDS011;73510;50.866;5.420;2024-01-25T09:58:59;38.28;;;12.13;;
83552;SDS011;73510;50.866;5.420;2024-01-25T10:01:26;40.10;;;11.77;;
83552;SDS011;73510;50.866;5.420;2024-01-25T10:03:52;48.15;;;13.65;;
83552;SDS011;73510;50.866;5.420;2024-01-25T10:06:18;41.97;;;14.07;;
83552;SDS011;73510;50.866;5.420;2024-01-25T10:08:45;45.35;;;13.18;;
83552;SDS011;73510;50.866;5.420;2024-01-25T10:11:11;44.20;;;12.35;;
83552;SDS011;73510;50.866;5.420;2024-01-25T10:13:43;38.28;;;12.15;;
83552;SDS011;73510;50.866;5.420;2024-01-25T10:16:10;37.92;;;13.48;;
83552;SDS011;73510;50.866;5.420;2024-01-25T10:18:40;43.33;;;13.75;;
83552;SDS011;73510;50.866;5.420;2024-01-25T10:21:10;45.58;;;13.10;;
83552;SDS011;73510;50.866;5.420;2024-01-25T10:23:36;38.05;;;12.50;;
83552;SDS011;73510;50.866;5.420;2024-01-25T10:26:02;37.25;;;11.07;;
83552;SDS011;73510;50.866;5.420;2024-01-25T10:28:28;36.15;;;12.52;;
83552;SDS011;73510;50.866;5.420;2024-01-25T10:30:56;37.28;;;12.55;;
83552;SDS011;73510;50.866;5.420;2024-01-25T10:33:24;38.80;;;12.20;;
83552;SDS011;73510;50.866;5.420;2024-01-25T10:35:51;35.03;;;11.40;;
83552;SDS011;73510;50.866;5.420;2024-01-25T10:38:21;33.10;;;10.50;;
83552;SDS011;73510;50.866;5.420;2024-01-25T10:40:47;39.70;;;10.93;;
83552;SDS011;73510;50.866;5.420;2024-01-25T10:43:13;36.67;;;11.23;;
83552;SDS011;73510;50.866;5.420;2024-01-25T10:45:39;27.83;;;9.55;;
83552;SDS011;73510;50.866;5.420;2024-01-25T10:48:05;34.13;;;10.48;;
83552;SDS011;73510;50.866;5.420;2024-01-25T10:50:32;33.38;;;9.82;;
83552;SDS011;73510;50.866;5.420;2024-01-25T10:52:58;36.15;;;10.15;;
83552;SDS011;73510;50.866;5.420;2024-01-25T10:55:25;36.53;;;11.65;;
83552;SDS011;73510;50.866;5.420;2024-01-25T10:57:51;27.45;;;9.13;;
83552;SDS011;73510;50.866;5.420;2024-01-25T11:00:17;31.42;;;9.43;;
83552;SDS011;73510;50.866;5.420;2024-01-25T11:02:46;29.42;;;10.45;;
83552;SDS011;73510;50.866;5.420;2024-01-25T11:05:12;34.90;;;11.20;;
83552;SDS011;73510;50.866;5.420;2024-01-25T11:10:19;33.05;;;9.45;;
83552;SDS011;73510;50.866;5.420;2024-01-25T11:12:50;31.85;;;10.50;;
83552;SDS011;73510;50.866;5.420;2024-01-25T11:18:00;33.90;;;11.25;;
83552;SDS011;73510;50.866;5.420;2024-01-25T11:20:27;34.38;;;11.95;;
83552;SDS011;73510;50.866;5.420;2024-01-25T11:23:06;23.33;;;9.23;;
83552;SDS011;73510;50.866;5.420;2024-01-25T11:25:35;28.45;;;10.82;;
83552;SDS011;73510;50.866;5.420;2024-01-25T11:28:02;21.75;;;7.80;;
83552;SDS011;73510;50.866;5.420;2024-01-25T11:30:33;24.98;;;7.63;;
83552;SDS011;73510;50.866;5.420;2024-01-25T11:33:00;30.20;;;7.78;;
83552;SDS011;73510;50.866;5.420;2024-01-25T11:35:29;19.58;;;6.38;;
83552;SDS011;73510;50.866;5.420;2024-01-25T11:37:54;25.88;;;7.40;;
83552;SDS011;73510;50.866;5.420;2024-01-25T11:40:20;27.65;;;7.53;;
83552;SDS011;73510;50.866;5.420;2024-01-25T11:42:47;22.55;;;7.38;;
83552;SDS011;73510;50.866;5.420;2024-01-25T11:45:14;33.08;;;7.32;;
83552;SDS011;73510;50.866;5.420;2024-01-25T11:47:41;31.67;;;9.23;;
83552;SDS011;73510;50.866;5.420;2024-01-25T11:50:08;28.27;;;7.90;;
83552;SDS011;73510;50.866;5.420;2024-01-25T11:52:35;32.05;;;9.30;;
83552;SDS011;73510;50.866;5.420;2024-01-25T11:55:04;26.55;;;6.70;;
83552;SDS011;73510;50.866;5.420;2024-01-25T11:57:32;24.90;;;6.95;;
83552;SDS011;73510;50.866;5.420;2024-01-25T12:00:02;15.35;;;5.50;;
83552;SDS011;73510;50.866;5.420;2024-01-25T12:02:29;25.50;;;6.68;;
83552;SDS011;73510;50.866;5.420;2024-01-25T12:04:56;24.33;;;7.57;;
83552;SDS011;73510;50.866;5.420;2024-01-25T12:07:22;29.63;;;6.60;;
83552;SDS011;73510;50.866;5.420;2024-01-25T12:12:27;24.98;;;7.20;;
83552;SDS011;73510;50.866;5.420;2024-01-25T12:15:00;23.27;;;5.82;;
83552;SDS011;73510;50.866;5.420;2024-01-25T12:17:28;27.05;;;6.10;;
83552;SDS011;73510;50.866;5.420;2024-01-25T12:19:58;25.77;;;6.30;;
83552;SDS011;73510;50.866;5.420;2024-01-25T12:22:26;21.98;;;5.68;;
83552;SDS011;73510;50.866;5.420;2024-01-25T12:24:56;26.67;;;6.03;;
83552;SDS011;73510;50.866;5.420;2024-01-25T12:27:22;24.45;;;5.53;;
83552;SDS011;73510;50.866;5.420;2024-01-25T12:29:50;24.50;;;6.53;;
83552;SDS011;73510;50.866;5.420;2024-01-25T12:32:18;22.98;;;5.20;;
83552;SDS011;73510;50.866;5.420;2024-01-25T12:34:57;24.85;;;5.28;;
83552;SDS011;73510;50.866;5.420;2024-01-25T12:37:24;22.58;;;5.40;;
83552;SDS011;73510;50.866;5.420;2024-01-25T12:39:50;24.95;;;4.90;;
83552;SDS011;73510;50.866;5.420;2024-01-25T12:42:17;21.33;;;4.28;;
83552;SDS011;73510;50.866;5.420;2024-01-25T12:44:43;22.73;;;5.07;;
83552;SDS011;73510;50.866;5.420;2024-01-25T12:47:10;23.30;;;5.63;;
83552;SDS011;73510;50.866;5.420;2024-01-25T12:49:39;24.58;;;4.32;;
83552;SDS011;73510;50.866;5.420;2024-01-25T12:52:06;22.50;;;4.15;;
83552;SDS011;73510;50.866;5.420;2024-01-25T12:57:03;16.65;;;4.07;;
83552;SDS011;73510;50.866;5.420;2024-01-25T12:59:30;20.17;;;4.25;;
83552;SDS011;73510;50.866;5.420;2024-01-25T13:01:56;21.00;;;5.00;;
83552;SDS011;73510;50.866;5.420;2024-01-25T13:04:22;16.88;;;4.03;;
83552;SDS011;73510;50.866;5.420;2024-01-25T13:06:48;22.15;;;4.20;;
83552;SDS011;73510;50.866;5.420;2024-01-25T13:09:14;27.55;;;4.88;;
83552;SDS011;73510;50.866;5.420;2024-01-25T13:11:41;21.60;;;4.57;;
83552;SDS011;73510;50.866;5.420;2024-01-25T13:14:06;21.05;;;4.03;;
83552;SDS011;73510;50.866;5.420;2024-01-25T13:16:32;18.25;;;3.35;;
83552;SDS011;73510;50.866;5.420;2024-01-25T13:18:59;17.85;;;5.00;;
83552;SDS011;73510;50.866;5.420;2024-01-25T13:21:25;27.85;;;4.25;;
83552;SDS011;73510;50.866;5.420;2024-01-25T13:23:51;19.67;;;3.92;;
83552;SDS011;73510;50.866;5.420;2024-01-25T13:26:16;19.17;;;5.55;;
83552;SDS011;73510;50.866;5.420;2024-01-25T13:28:42;19.17;;;4.60;;
83552;SDS011;73510;50.866;5.420;2024-01-25T13:31:08;25.27;;;4.88;;
83552;SDS011;73510;50.866;5.420;2024-01-25T13:33:33;24.02;;;5.07;;
83552;SDS011;73510;50.866;5.420;2024-01-25T13:35:59;18.70;;;5.15;;
83552;SDS011;73510;50.866;5.420;2024-01-25T13:38:29;22.80;;;5.38;;
83552;SDS011;73510;50.866;5.420;2024-01-25T13:40:55;21.20;;;7.35;;
83552;SDS011;73510;50.866;5.420;2024-01-25T13:43:21;26.35;;;6.10;;
83552;SDS011;73510;50.866;5.420;2024-01-25T13:45:46;22.73;;;4.85;;
83552;SDS011;73510;50.866;5.420;2024-01-25T13:48:12;18.23;;;5.95;;
83552;SDS011;73510;50.866;5.420;2024-01-25T13:50:38;20.65;;;7.00;;
83552;SDS011;73510;50.866;5.420;2024-01-25T13:53:03;23.27;;;5.50;;
83552;SDS011;73510;50.866;5.420;2024-01-25T13:55:29;15.40;;;4.15;;
83552;SDS011;73510;50.866;5.420;2024-01-25T13:57:55;19.75;;;3.88;;
83552;SDS011;73510;50.866;5.420;2024-01-25T14:00:20;15.95;;;3.22;;
83552;SDS011;73510;50.866;5.420;2024-01-25T14:02:47;12.02;;;2.63;;
83552;SDS011;73510;50.866;5.420;2024-01-25T14:05:13;15.55;;;4.25;;
83552;SDS011;73510;50.866;5.420;2024-01-25T14:07:41;15.10;;;6.07;;
83552;SDS011;73510;50.866;5.420;2024-01-25T14:10:07;16.15;;;6.25;;
83552;SDS011;73510;50.866;5.420;2024-01-25T14:12:33;10.80;;;2.97;;
83552;SDS011;73510;50.866;5.420;2024-01-25T14:14:59;16.40;;;3.25;;
83552;SDS011;73510;50.866;5.420;2024-01-25T14:17:24;14.80;;;3.85;;
83552;SDS011;73510;50.866;5.420;2024-01-25T14:19:52;8.00;;;3.10;;
83552;SDS011;73510;50.866;5.420;2024-01-25T14:22:19;12.35;;;3.53;;
83552;SDS011;73510;50.866;5.420;2024-01-25T14:24:44;14.30;;;3.53;;
83552;SDS011;73510;50.866;5.420;2024-01-25T14:27:11;14.23;;;2.60;;
83552;SDS011;73510;50.866;5.420;2024-01-25T14:29:37;10.73;;;2.85;;
83552;SDS011;73510;50.866;5.420;2024-01-25T14:32:02;16.67;;;6.30;;
83552;SDS011;73510;50.866;5.420;2024-01-25T14:34:31;13.60;;;4.18;;
83552;SDS011;73510;50.866;5.420;2024-01-25T14:36:57;11.32;;;3.00;;
83552;SDS011;73510;50.866;5.420;2024-01-25T14:39:23;7.55;;;2.63;;